Time;durP1;ratioP1;P1;durP2;ratioP2;P2;SDS_P1;SDS_P2;PMS_P1;PMS_P2;Temp;Humidity;BMP_temperature;BMP_pressure;BME280_temperature;BME280_humidity;BME280_pressure;Samples;Min_cycle;Max_cycle;Signal;HPM_P1;HPM_P2
2022/04/13 00:00:28;;;;;;;;;;;;;;;18.68;57.13;98945.84;2086423;28;19925;-50
2022/04/13 00:01:31;;;;;;;;;;;;;;;18.67;57.12;98942.34;2086827;28;19925;-51
2022/04/13 00:02:31;;;;;;;;;;;;;;;18.67;56.97;98949.59;2087634;28;19924;-48
2022/04/13 00:03:33;;;;;;;;;;;;;;;18.68;56.91;98948.53;2087299;28;19932;-51
2022/04/13 00:04:34;;;;;;;;;;;;;;;18.67;57.04;98952.28;2085964;28;19973;-48
2022/04/13 00:05:35;;;;;;;;;;;;;;;18.66;57.08;98946.03;2087000;28;20015;-50
2022/04/13 00:06:38;;;;;;;;;;;;;;;18.68;56.91;98943.16;2085491;28;19928;-49
2022/04/13 00:07:40;;;;;;;;;;;;;;;18.66;56.88;98939.84;2082397;28;19924;-49
2022/04/13 00:08:43;;;;;;;;;;;;;;;18.65;56.89;98946.25;2084823;28;20527;-48
2022/04/13 00:09:45;;;;;;;;;;;;;;;18.64;56.92;98945.44;2088019;28;19920;-48
2022/04/13 00:10:45;;;;;;;;;;;;;;;18.66;57.10;98953.28;2086485;28;19925;-48
2022/04/13 00:11:47;;;;;;;;;;;;;;;18.65;57.08;98946.25;2088124;28;19934;-50
2022/04/13 00:12:48;;;;;;;;;;;;;;;18.66;57.29;98947.91;2084883;28;19932;-48
2022/04/13 00:13:49;;;;;;;;;;;;;;;18.64;56.98;98942.75;2088631;28;19924;-49
2022/04/13 00:14:50;;;;;;;;;;;;;;;18.65;57.16;98943.56;2079550;28;20015;-48
2022/04/13 00:15:52;;;;;;;;;;;;;;;18.65;57.12;98944.41;2089529;28;20008;-49
2022/04/13 00:16:54;;;;;;;;;;;;;;;18.63;57.23;98941.06;2086561;28;19925;-49
2022/04/13 00:17:56;;;;;;;;;;;;;;;18.63;56.92;98946.44;2087308;28;19924;-49
2022/04/13 00:18:56;;;;;;;;;;;;;;;18.62;56.92;98942.09;2085611;28;19920;-49
2022/04/13 00:19:58;;;;;;;;;;;;;;;18.62;57.37;98938.59;2088135;28;19935;-51
2022/04/13 00:20:59;;;;;;;;;;;;;;;18.63;57.32;98932.19;2086296;28;19954;-49
2022/04/13 00:22:00;;;;;;;;;;;;;;;18.62;57.18;98939.41;2085511;28;20358;-50
2022/04/13 00:23:01;;;;;;;;;;;;;;;18.62;57.12;98938.59;2084862;28;19925;-48
2022/04/13 00:24:02;;;;;;;;;;;;;;;18.62;57.16;98938.59;2084655;28;19924;-50
2022/04/13 00:25:03;;;;;;;;;;;;;;;18.61;57.02;98943.13;2088392;28;19950;-48
2022/04/13 00:26:05;;;;;;;;;;;;;;;18.61;57.06;98936.91;2085890;28;19959;-48
2022/04/13 00:27:05;;;;;;;;;;;;;;;18.60;57.36;98940.63;2086359;28;19931;-49
2022/04/13 00:28:09;;;;;;;;;;;;;;;18.61;57.22;98939.59;2087980;28;19966;-52
2022/04/13 00:29:10;;;;;;;;;;;;;;;18.59;56.90;98939.81;2085992;28;20297;-48
2022/04/13 00:30:12;;;;;;;;;;;;;;;18.58;56.73;98940.00;2087430;28;19925;-48
2022/04/13 00:31:12;;;;;;;;;;;;;;;18.57;57.31;98933.78;2082906;28;19924;-52
2022/04/13 00:32:15;;;;;;;;;;;;;;;18.59;56.91;98933.63;2084486;28;20522;-49
2022/04/13 00:33:16;;;;;;;;;;;;;;;18.57;56.74;98927.59;2085672;28;20386;-51
2022/04/13 00:34:17;;;;;;;;;;;;;;;18.56;57.04;98928.63;2087268;28;19920;-48
2022/04/13 00:35:18;;;;;;;;;;;;;;;18.56;57.05;98921.41;2087134;28;20059;-52
2022/04/13 00:36:20;;;;;;;;;;;;;;;18.57;57.17;98924.91;2086787;28;20417;-48
2022/04/13 00:37:20;;;;;;;;;;;;;;;18.55;57.35;98927.78;2082863;28;19929;-47
2022/04/13 00:38:22;;;;;;;;;;;;;;;18.58;57.08;98929.25;2084969;28;19935;-47
2022/04/13 00:39:23;;;;;;;;;;;;;;;18.57;57.25;98930.28;2082843;28;20679;-47
2022/04/13 00:40:25;;;;;;;;;;;;;;;18.55;57.05;98927.78;2086891;28;19935;-46
2022/04/13 00:41:26;;;;;;;;;;;;;;;18.54;57.17;98926.97;2086517;28;19931;-47
2022/04/13 00:42:28;;;;;;;;;;;;;;;18.54;57.14;98924.28;2087662;28;19928;-48
2022/04/13 00:43:29;;;;;;;;;;;;;;;18.54;57.26;98924.28;2085028;28;19924;-49
2022/04/13 00:44:31;;;;;;;;;;;;;;;18.55;57.43;98925.09;2086173;28;20330;-46
2022/04/13 00:45:31;;;;;;;;;;;;;;;18.52;57.09;98923.63;2086795;28;19925;-48
2022/04/13 00:46:33;;;;;;;;;;;;;;;18.54;57.71;98926.97;2086520;28;20602;-47
2022/04/13 00:47:38;;;;;;;;;;;;;;;18.52;57.05;98918.25;2078314;28;19935;-47
2022/04/13 00:48:42;;;;;;;;;;;;;;;18.50;57.02;98919.50;2088182;28;20294;-47
2022/04/13 00:49:43;;;;;;;;;;;;;;;18.50;57.81;98920.31;2087067;28;19924;-49
2022/04/13 00:50:44;;;;;;;;;;;;;;;18.51;57.49;98921.16;2088233;28;20314;-51
2022/04/13 00:51:45;;;;;;;;;;;;;;;18.50;57.19;98919.50;2087144;28;19924;-48
2022/04/13 00:52:48;;;;;;;;;;;;;;;18.51;56.85;98921.16;2081815;28;19936;-49
2022/04/13 00:53:50;;;;;;;;;;;;;;;18.51;57.06;98921.16;2086003;28;19931;-48
2022/04/13 00:54:52;;;;;;;;;;;;;;;18.50;57.44;98916.81;2084347;28;20013;-48
2022/04/13 00:55:54;;;;;;;;;;;;;;;18.51;57.02;98921.16;2083997;28;20449;-47
2022/04/13 00:56:56;;;;;;;;;;;;;;;18.50;57.14;98919.50;2087134;28;19994;-48
2022/04/13 00:57:57;;;;;;;;;;;;;;;18.49;57.42;98917.81;2088125;28;19924;-47
2022/04/13 00:59:03;;;;;;;;;;;;;;;18.48;57.31;98917.00;2087012;28;19960;-50
2022/04/13 01:00:04;;;;;;;;;;;;;;;18.48;57.59;98913.50;2087940;28;19920;-49
2022/04/13 01:01:07;;;;;;;;;;;;;;;18.48;56.94;98913.50;2088443;28;19920;-48
2022/04/13 01:02:08;;;;;;;;;;;;;;;18.48;56.83;98908.94;2084911;28;19931;-49
2022/04/13 01:03:12;;;;;;;;;;;;;;;18.47;57.13;98915.34;2086244;28;19931;-50
2022/04/13 01:04:14;;;;;;;;;;;;;;;18.46;57.14;98911.00;2083561;28;19925;-50
2022/04/13 01:05:16;;;;;;;;;;;;;;;18.46;56.94;98913.66;2072596;28;19925;-48
2022/04/13 01:06:17;;;;;;;;;;;;;;;18.45;57.30;98912.03;2084901;28;19999;-50
2022/04/13 01:07:19;;;;;;;;;;;;;;;18.46;57.17;98910.16;2086016;28;19931;-47
2022/04/13 01:08:20;;;;;;;;;;;;;;;18.46;57.16;98902.94;2081551;28;19924;-48
2022/04/13 01:09:23;;;;;;;;;;;;;;;18.44;57.19;98905.00;2084982;28;19921;-48
2022/04/13 01:10:25;;;;;;;;;;;;;;;18.44;57.17;98905.00;2080477;28;19932;-50
2022/04/13 01:11:28;;;;;;;;;;;;;;;18.44;57.34;98904.16;2081675;28;20298;-49
2022/04/13 01:12:28;;;;;;;;;;;;;;;18.43;57.30;98900.63;2088876;28;19929;-47
2022/04/13 01:13:30;;;;;;;;;;;;;;;18.42;57.13;98899.00;2083470;28;20417;-47
2022/04/13 01:14:32;;;;;;;;;;;;;;;18.43;57.19;98897.94;2087175;28;19921;-47
2022/04/13 01:15:33;;;;;;;;;;;;;;;18.43;57.28;98895.28;2086889;28;19924;-47
2022/04/13 01:16:39;;;;;;;;;;;;;;;18.43;57.23;98892.59;2084438;28;20011;-49
2022/04/13 01:17:40;;;;;;;;;;;;;;;18.42;57.20;98890.94;2088173;28;20298;-50
2022/04/13 01:18:43;;;;;;;;;;;;;;;18.43;57.11;98891.75;2086804;28;19968;-48
2022/04/13 01:19:46;;;;;;;;;;;;;;;18.42;57.04;98893.63;2083556;28;20043;-47
2022/04/13 01:20:52;;;;;;;;;;;;;;;18.40;57.31;98890.28;2078022;28;21051;-47
2022/04/13 01:21:58;;;;;;;;;;;;;;;18.39;57.43;98894.00;2086915;28;19929;-47
2022/04/13 01:23:01;;;;;;;;;;;;;;;18.38;57.57;98889.66;2086338;28;19951;-50
2022/04/13 01:24:02;;;;;;;;;;;;;;;18.39;57.35;98896.69;2083937;28;19924;-49
2022/04/13 01:25:03;;;;;;;;;;;;;;;18.39;57.79;98887.81;2087069;28;19929;-48
2022/04/13 01:26:04;;;;;;;;;;;;;;;18.39;57.21;98891.31;2087605;28;19920;-48
2022/04/13 01:27:05;;;;;;;;;;;;;;;18.39;57.58;98891.31;2087074;28;19928;-50
2022/04/13 01:28:06;;;;;;;;;;;;;;;18.39;57.49;98891.31;2084606;28;19924;-49
2022/04/13 01:29:08;;;;;;;;;;;;;;;18.39;56.98;98888.66;2084196;28;19928;-49
2022/04/13 01:30:09;;;;;;;;;;;;;;;18.39;56.96;98894.00;2087773;28;20015;-48
2022/04/13 01:31:10;;;;;;;;;;;;;;;18.37;57.17;98887.19;2086925;28;19921;-48
2022/04/13 01:32:11;;;;;;;;;;;;;;;18.38;57.25;98888.81;2086998;28;19925;-49
2022/04/13 01:33:13;;;;;;;;;;;;;;;18.37;57.19;98888.00;2085977;28;19982;-50
2022/04/13 01:34:13;;;;;;;;;;;;;;;18.36;57.54;98889.03;2085509;28;19920;-51
2022/04/13 01:35:15;;;;;;;;;;;;;;;18.36;57.25;98883.66;2085935;28;19925;-50
2022/04/13 01:36:16;;;;;;;;;;;;;;;18.36;57.59;98891.72;2079918;28;19925;-49
2022/04/13 01:37:18;;;;;;;;;;;;;;;18.36;57.11;98886.34;2078190;28;19931;-49
2022/04/13 01:38:20;;;;;;;;;;;;;;;18.35;57.08;98887.34;2078058;28;20481;-49
2022/04/13 01:39:21;;;;;;;;;;;;;;;18.34;57.09;98887.56;2086175;28;19999;-48
2022/04/13 01:40:22;;;;;;;;;;;;;;;18.34;57.13;98883.03;2085747;28;20943;-50
2022/04/13 01:41:24;;;;;;;;;;;;;;;18.35;57.40;98886.53;2087423;28;20011;-48
2022/04/13 01:42:24;;;;;;;;;;;;;;;18.33;57.01;98881.38;2087356;28;19936;-49
2022/04/13 01:43:26;;;;;;;;;;;;;;;18.33;57.52;98884.06;2087618;28;19942;-51
2022/04/13 01:44:26;;;;;;;;;;;;;;;18.33;57.50;98884.06;2086062;28;19936;-51
2022/04/13 01:45:28;;;;;;;;;;;;;;;18.33;57.25;98885.88;2085904;28;19925;-49
2022/04/13 01:46:28;;;;;;;;;;;;;;;18.33;57.47;98883.22;2085121;28;19924;-47
2022/04/13 01:47:30;;;;;;;;;;;;;;;18.33;57.10;98889.44;2086313;28;20049;-50
2022/04/13 01:48:31;;;;;;;;;;;;;;;18.33;57.55;98878.69;2076822;28;20332;-49
2022/04/13 01:49:33;;;;;;;;;;;;;;;18.33;56.97;98886.75;2086597;28;19952;-48
2022/04/13 01:50:33;;;;;;;;;;;;;;;18.32;57.41;98882.38;2085635;28;20023;-50
2022/04/13 01:51:35;;;;;;;;;;;;;;;18.32;57.48;98885.06;2088311;28;19931;-48
2022/04/13 01:52:35;;;;;;;;;;;;;;;18.31;57.44;98878.06;2087835;28;19920;-49
2022/04/13 01:53:38;;;;;;;;;;;;;;;18.30;57.50;98882.59;2085038;28;20011;-50
2022/04/13 01:54:39;;;;;;;;;;;;;;;18.29;57.04;98886.28;2084750;28;20330;-48
2022/04/13 01:55:41;;;;;;;;;;;;;;;18.30;57.22;98877.22;2087613;28;19935;-50
2022/04/13 01:56:41;;;;;;;;;;;;;;;18.30;57.05;98876.38;2087045;28;20408;-49
2022/04/13 01:57:43;;;;;;;;;;;;;;;18.30;57.11;98877.22;2083976;28;19932;-48
2022/04/13 01:58:43;;;;;;;;;;;;;;;18.30;57.68;98871.00;2085283;28;19928;-49
2022/04/13 01:59:45;;;;;;;;;;;;;;;18.30;57.24;98871.00;2086661;28;19932;-48
2022/04/13 02:00:46;;;;;;;;;;;;;;;18.28;57.61;98871.22;2087112;28;20072;-51
2022/04/13 02:01:47;;;;;;;;;;;;;;;18.28;57.09;98867.69;2088940;28;19932;-49
2022/04/13 02:02:48;;;;;;;;;;;;;;;18.30;57.59;98871.00;2087320;28;20593;-49
2022/04/13 02:03:50;;;;;;;;;;;;;;;18.28;57.31;98870.38;2087139;28;20478;-51
2022/04/13 02:04:51;;;;;;;;;;;;;;;18.27;57.17;98864.16;2085918;28;19932;-47
2022/04/13 02:05:52;;;;;;;;;;;;;;;18.26;57.04;98870.56;2077311;28;20029;-49
2022/04/13 02:06:54;;;;;;;;;;;;;;;18.27;57.62;98871.41;2087185;28;20451;-51
2022/04/13 02:07:55;;;;;;;;;;;;;;;18.26;57.03;98862.50;2087090;28;19921;-49
2022/04/13 02:08:57;;;;;;;;;;;;;;;18.25;57.95;98863.56;2082515;28;19967;-48
2022/04/13 02:09:58;;;;;;;;;;;;;;;18.24;57.36;98861.03;2084072;28;19928;-48
2022/04/13 02:11:00;;;;;;;;;;;;;;;18.25;57.62;98870.78;2083573;28;19935;-49
2022/04/13 02:12:01;;;;;;;;;;;;;;;18.23;57.41;98854.84;2087350;28;19920;-49
2022/04/13 02:13:02;;;;;;;;;;;;;;;18.24;57.25;98866.41;2084896;28;19964;-50
2022/04/13 02:14:04;;;;;;;;;;;;;;;18.24;56.97;98861.03;2087946;28;19924;-49
2022/04/13 02:15:05;;;;;;;;;;;;;;;18.23;57.41;98859.41;2086462;28;20460;-49
2022/04/13 02:16:08;;;;;;;;;;;;;;;18.23;57.71;98862.91;2084968;28;19925;-49
2022/04/13 02:17:08;;;;;;;;;;;;;;;18.23;57.14;98859.41;2086838;28;20004;-50
2022/04/13 02:18:10;;;;;;;;;;;;;;;18.22;57.20;98860.41;2085767;28;20507;-49
2022/04/13 02:19:12;;;;;;;;;;;;;;;18.21;57.01;98861.44;2085345;28;20009;-49
2022/04/13 02:20:14;;;;;;;;;;;;;;;18.21;57.49;98859.59;2086227;28;19925;-49
2022/04/13 02:21:14;;;;;;;;;;;;;;;18.21;57.25;98856.06;2079072;28;20005;-50
2022/04/13 02:22:16;;;;;;;;;;;;;;;18.19;57.66;98855.44;2085307;28;20337;-51
2022/04/13 02:23:16;;;;;;;;;;;;;;;18.20;57.05;98855.25;2085305;28;19928;-49
2022/04/13 02:24:19;;;;;;;;;;;;;;;18.20;56.98;98855.25;2083715;28;20640;-49
2022/04/13 02:25:20;;;;;;;;;;;;;;;18.23;57.16;98859.41;2087268;28;20231;-49
2022/04/13 02:26:22;;;;;;;;;;;;;;;18.21;57.45;98853.38;2086800;28;19928;-49
2022/04/13 02:27:23;;;;;;;;;;;;;;;18.22;57.42;98857.72;2088188;28;19962;-50
2022/04/13 02:28:24;;;;;;;;;;;;;;;18.20;57.42;98857.94;2087948;28;19928;-51
2022/04/13 02:29:25;;;;;;;;;;;;;;;18.19;57.03;98850.91;2087332;28;20329;-50
2022/04/13 02:30:26;;;;;;;;;;;;;;;18.18;56.92;98848.41;2085713;28;19932;-50
2022/04/13 02:31:27;;;;;;;;;;;;;;;18.18;57.42;98851.09;2077613;28;19928;-49
2022/04/13 02:32:28;;;;;;;;;;;;;;;18.18;56.88;98856.47;2088363;28;19993;-47
2022/04/13 02:33:31;;;;;;;;;;;;;;;18.18;57.68;98846.56;2089035;28;19924;-51
2022/04/13 02:34:32;;;;;;;;;;;;;;;18.16;57.35;98847.78;2086251;28;19966;-52
2022/04/13 02:35:33;;;;;;;;;;;;;;;18.17;57.40;98846.75;2088385;28;19924;-47
2022/04/13 02:36:34;;;;;;;;;;;;;;;18.15;57.63;98841.56;2086767;28;19925;-47
2022/04/13 02:37:35;;;;;;;;;;;;;;;18.16;57.46;98845.09;2088117;28;19999;-51
2022/04/13 02:38:36;;;;;;;;;;;;;;;18.17;57.46;98841.41;2085430;28;19973;-52
2022/04/13 02:39:39;;;;;;;;;;;;;;;18.16;57.74;98837.84;2083292;28;19928;-50
2022/04/13 02:40:39;;;;;;;;;;;;;;;18.16;57.47;98845.09;2085657;28;20881;-51
2022/04/13 02:41:41;;;;;;;;;;;;;;;18.15;57.42;98846.94;2087802;28;19924;-51
2022/04/13 02:42:42;;;;;;;;;;;;;;;18.16;57.25;98847.78;2083524;28;21954;-48
2022/04/13 02:43:43;;;;;;;;;;;;;;;18.15;57.25;98835.38;2087345;28;19936;-49
2022/04/13 02:44:44;;;;;;;;;;;;;;;18.17;57.66;98844.06;2087449;28;20413;-50
2022/04/13 02:45:46;;;;;;;;;;;;;;;18.16;57.70;98843.22;2087108;28;19924;-50
2022/04/13 02:46:46;;;;;;;;;;;;;;;18.15;57.41;98840.75;2087159;28;19947;-48
2022/04/13 02:47:48;;;;;;;;;;;;;;;18.17;57.57;98847.59;2087969;28;19927;-51
2022/04/13 02:48:48;;;;;;;;;;;;;;;18.18;57.54;98840.34;2076780;28;20694;-51
2022/04/13 02:49:50;;;;;;;;;;;;;;;18.16;57.28;98837.03;2088402;28;19932;-47
2022/04/13 02:50:52;;;;;;;;;;;;;;;18.13;57.61;98837.44;2088679;28;19932;-50
2022/04/13 02:51:53;;;;;;;;;;;;;;;18.14;57.18;98833.75;2089353;28;19924;-49
2022/04/13 02:52:54;;;;;;;;;;;;;;;18.13;57.66;98832.06;2081284;28;20522;-51
2022/04/13 02:53:55;;;;;;;;;;;;;;;18.14;57.26;98839.09;2085566;28;19973;-49
2022/04/13 02:54:58;;;;;;;;;;;;;;;18.11;57.70;98836.78;2086614;28;19932;-48
2022/04/13 02:55:59;;;;;;;;;;;;;;;18.11;57.71;98840.31;2087482;28;19964;-49
2022/04/13 02:57:00;;;;;;;;;;;;;;;18.09;57.43;98840.50;2088978;28;19932;-50
2022/04/13 02:58:01;;;;;;;;;;;;;;;18.10;57.36;98838.66;2088741;28;21067;-48
2022/04/13 02:59:02;;;;;;;;;;;;;;;18.08;57.37;98833.50;2088250;28;19974;-51
2022/04/13 03:00:03;;;;;;;;;;;;;;;18.08;57.60;98833.50;2089847;28;19921;-50
2022/04/13 03:01:06;;;;;;;;;;;;;;;18.08;57.57;98827.28;2089897;28;19924;-48
2022/04/13 03:02:07;;;;;;;;;;;;;;;18.07;57.85;98833.66;2089699;28;19921;-50
2022/04/13 03:03:08;;;;;;;;;;;;;;;18.06;57.67;98832.84;2089263;28;19964;-48
2022/04/13 03:04:09;;;;;;;;;;;;;;;18.08;57.60;98835.34;2088563;28;19928;-47
2022/04/13 03:05:11;;;;;;;;;;;;;;;18.08;57.02;98835.34;2090978;28;19944;-51
2022/04/13 03:06:12;;;;;;;;;;;;;;;18.05;58.15;98831.19;2090153;28;19932;-49
2022/04/13 03:07:14;;;;;;;;;;;;;;;18.06;57.29;98832.03;2089363;28;20432;-49
2022/04/13 03:08:15;;;;;;;;;;;;;;;18.05;57.58;98831.19;2081495;28;19929;-48
2022/04/13 03:09:16;;;;;;;;;;;;;;;18.06;57.55;98829.34;2086886;28;19943;-45
2022/04/13 03:10:19;;;;;;;;;;;;;;;18.06;57.76;98826.66;2088185;28;19924;-46
2022/04/13 03:11:21;;;;;;;;;;;;;;;18.05;57.68;98831.19;2087603;28;19925;-47
2022/04/13 03:12:23;;;;;;;;;;;;;;;18.05;57.65;98831.19;2087490;28;20011;-50
2022/04/13 03:13:24;;;;;;;;;;;;;;;18.06;57.57;98830.16;2089608;28;20392;-49
2022/04/13 03:14:25;;;;;;;;;;;;;;;18.05;57.74;98830.34;2090291;28;19973;-48
2022/04/13 03:15:26;;;;;;;;;;;;;;;18.04;57.48;98829.50;2085230;28;19994;-48
2022/04/13 03:16:28;;;;;;;;;;;;;;;18.05;57.44;98825.81;2085623;28;19924;-46
2022/04/13 03:17:28;;;;;;;;;;;;;;;18.05;57.39;98831.19;2088655;28;19928;-47
2022/04/13 03:18:30;;;;;;;;;;;;;;;18.04;57.31;98829.50;2079384;28;20543;-49
2022/04/13 03:19:31;;;;;;;;;;;;;;;18.04;57.53;98826.84;2086075;28;19931;-47
2022/04/13 03:20:32;;;;;;;;;;;;;;;18.03;57.65;98821.69;2081293;28;20272;-50
2022/04/13 03:21:33;;;;;;;;;;;;;;;18.00;57.61;98828.25;2086555;28;19931;-46
2022/04/13 03:22:34;;;;;;;;;;;;;;;18.01;57.67;98824.53;2085316;28;19931;-50
2022/04/13 03:23:35;;;;;;;;;;;;;;;18.02;57.98;98820.00;2086106;28;19928;-47
2022/04/13 03:24:36;;;;;;;;;;;;;;;18.03;57.74;98825.19;2086830;28;20275;-47
2022/04/13 03:25:38;;;;;;;;;;;;;;;18.02;57.77;98826.19;2088828;28;19935;-47
2022/04/13 03:26:40;;;;;;;;;;;;;;;18.01;57.16;98821.84;2088948;28;19924;-46
2022/04/13 03:27:40;;;;;;;;;;;;;;;18.03;57.61;98827.88;2087427;28;19921;-50
2022/04/13 03:28:42;;;;;;;;;;;;;;;18.01;57.77;98824.53;2088788;28;24751;-49
2022/04/13 03:29:42;;;;;;;;;;;;;;;18.00;57.43;98822.91;2081256;28;20414;-47
2022/04/13 03:30:44;;;;;;;;;;;;;;;18.01;57.48;98829.91;2088498;28;19930;-51
2022/04/13 03:31:45;;;;;;;;;;;;;;;18.01;57.60;98821.84;2089212;28;19924;-50
2022/04/13 03:32:46;;;;;;;;;;;;;;;18.01;57.24;98821.03;2088048;28;19924;-49
2022/04/13 03:33:48;;;;;;;;;;;;;;;18.00;57.58;98825.56;2087508;28;19932;-49
2022/04/13 03:34:48;;;;;;;;;;;;;;;17.99;57.48;98821.22;2088231;28;19925;-50
2022/04/13 03:35:50;;;;;;;;;;;;;;;17.99;57.72;98820.41;2088412;28;20386;-50
2022/04/13 03:36:51;;;;;;;;;;;;;;;17.98;57.76;98824.94;2087568;28;20267;-48
2022/04/13 03:37:52;;;;;;;;;;;;;;;17.99;57.43;98821.22;2084396;28;20413;-49
2022/04/13 03:38:54;;;;;;;;;;;;;;;17.99;57.43;98821.22;2084518;28;19924;-50
2022/04/13 03:39:54;;;;;;;;;;;;;;;17.97;57.66;98817.91;2087565;28;19928;-51
2022/04/13 03:40:57;;;;;;;;;;;;;;;17.96;57.74;98818.94;2087954;28;19924;-48
2022/04/13 03:41:57;;;;;;;;;;;;;;;17.96;57.85;98818.94;2089064;28;19932;-48
2022/04/13 03:42:59;;;;;;;;;;;;;;;17.97;57.72;98819.75;2088362;28;19929;-48
2022/04/13 03:43:59;;;;;;;;;;;;;;;17.95;57.67;98819.97;2087440;28;19921;-50
2022/04/13 03:45:02;;;;;;;;;;;;;;;17.97;57.75;98822.44;2088583;28;20893;-47
2022/04/13 03:46:04;;;;;;;;;;;;;;;17.97;57.64;98825.97;2088187;28;19969;-49
2022/04/13 03:47:06;;;;;;;;;;;;;;;17.98;57.65;98819.56;2084736;28;19930;-51
2022/04/13 03:48:07;;;;;;;;;;;;;;;17.99;57.35;98818.53;2087623;28;19925;-48
2022/04/13 03:49:08;;;;;;;;;;;;;;;17.97;57.39;98817.91;2088262;28;19924;-53
2022/04/13 03:50:10;;;;;;;;;;;;;;;17.97;57.46;98822.44;2086708;28;20382;-48
2022/04/13 03:51:11;;;;;;;;;;;;;;;17.96;57.68;98820.78;2087412;28;19928;-51
2022/04/13 03:52:12;;;;;;;;;;;;;;;17.95;57.47;98825.31;2088485;28;20293;-48
2022/04/13 03:53:15;;;;;;;;;;;;;;;17.95;57.75;98819.97;2084696;28;19932;-49
2022/04/13 03:54:17;;;;;;;;;;;;;;;17.95;57.33;98819.97;2084880;28;19921;-51
2022/04/13 03:55:22;;;;;;;;;;;;;;;17.95;57.39;98822.66;2085792;28;19924;-50
2022/04/13 03:56:25;;;;;;;;;;;;;;;17.95;57.51;98825.31;2088265;28;19931;-49
2022/04/13 03:57:25;;;;;;;;;;;;;;;17.93;57.46;98824.69;2089179;28;19924;-49
2022/04/13 03:58:27;;;;;;;;;;;;;;;17.94;57.23;98820.16;2088388;28;20814;-51
2022/04/13 03:59:28;;;;;;;;;;;;;;;17.92;57.72;98817.66;2083008;28;21454;-51
2022/04/13 04:00:30;;;;;;;;;;;;;;;17.94;57.45;98828.19;2085939;28;20070;-50
2022/04/13 04:01:31;;;;;;;;;;;;;;;17.94;57.54;98818.31;2087473;28;20590;-51
2022/04/13 04:02:33;;;;;;;;;;;;;;;17.94;57.21;98818.31;2084387;28;19966;-51
2022/04/13 04:03:33;;;;;;;;;;;;;;;17.93;57.52;98821.19;2082106;28;19932;-47
2022/04/13 04:04:35;;;;;;;;;;;;;;;17.91;57.38;98817.84;2085988;28;20422;-51
2022/04/13 04:05:37;;;;;;;;;;;;;;;17.92;57.67;98822.22;2088596;28;19924;-46
2022/04/13 04:06:37;;;;;;;;;;;;;;;17.92;57.04;98817.66;2086964;28;19954;-51
2022/04/13 04:07:40;;;;;;;;;;;;;;;17.94;56.96;98817.47;2086404;28;20290;-54
2022/04/13 04:08:40;;;;;;;;;;;;;;;17.97;56.84;98825.97;2087405;28;20114;-50
2022/04/13 04:09:42;;;;;;;;;;;;;;;17.99;56.68;98823.91;2087205;28;19935;-51
2022/04/13 04:10:42;;;;;;;;;;;;;;;18.01;56.60;98819.19;2084793;28;19935;-51
2022/04/13 04:11:45;;;;;;;;;;;;;;;18.04;56.60;98823.31;2085545;28;19925;-48
2022/04/13 04:12:45;;;;;;;;;;;;;;;18.06;56.54;98821.28;2083441;28;19928;-51
2022/04/13 04:13:47;;;;;;;;;;;;;;;18.09;56.54;98821.72;2086651;28;19930;-47
2022/04/13 04:14:48;;;;;;;;;;;;;;;18.12;56.52;98830.41;2087238;28;19978;-49
2022/04/13 04:15:49;;;;;;;;;;;;;;;18.14;56.38;98828.38;2085649;28;19925;-48
2022/04/13 04:16:50;;;;;;;;;;;;;;;18.18;56.37;98829.63;2086521;28;19955;-51
2022/04/13 04:17:51;;;;;;;;;;;;;;;18.19;56.26;98825.91;2087829;28;20394;-51
2022/04/13 04:18:53;;;;;;;;;;;;;;;18.20;56.33;98823.03;2085696;28;19925;-52
2022/04/13 04:19:54;;;;;;;;;;;;;;;18.23;56.51;98822.63;2087013;28;20560;-49
2022/04/13 04:20:55;;;;;;;;;;;;;;;18.26;56.44;98830.28;2081003;28;19925;-54
2022/04/13 04:21:57;;;;;;;;;;;;;;;18.26;56.62;98829.47;2088998;28;19973;-49
2022/04/13 04:22:58;;;;;;;;;;;;;;;18.28;56.40;98824.75;2085014;28;19924;-50
2022/04/13 04:23:59;;;;;;;;;;;;;;;18.28;56.52;98828.25;2086984;28;20286;-50
2022/04/13 04:25:01;;;;;;;;;;;;;;;18.30;56.18;98828.03;2088038;28;19924;-49
2022/04/13 04:26:01;;;;;;;;;;;;;;;18.32;56.14;98828.69;2087952;28;20516;-52
2022/04/13 04:27:05;;;;;;;;;;;;;;;18.33;56.29;98826.81;2086400;28;19928;-52
2022/04/13 04:28:09;;;;;;;;;;;;;;;18.34;56.41;98834.69;2087575;28;19921;-53
2022/04/13 04:29:11;;;;;;;;;;;;;;;18.34;56.46;98823.94;2086427;28;20934;-50
2022/04/13 04:30:12;;;;;;;;;;;;;;;18.34;56.45;98828.50;2087207;28;19928;-50
2022/04/13 04:31:13;;;;;;;;;;;;;;;18.35;56.25;98830.97;2084815;28;20272;-51
2022/04/13 04:32:14;;;;;;;;;;;;;;;18.37;56.37;98828.09;2087081;28;20007;-48
2022/04/13 04:33:16;;;;;;;;;;;;;;;18.37;56.53;98834.28;2087217;28;20401;-49
2022/04/13 04:34:17;;;;;;;;;;;;;;;18.39;56.47;98832.25;2087356;28;19924;-52
2022/04/13 04:35:18;;;;;;;;;;;;;;;18.38;56.30;98830.56;2087481;28;19964;-47
2022/04/13 04:36:19;;;;;;;;;;;;;;;18.39;56.32;98829.56;2084865;28;19924;-52
2022/04/13 04:37:20;;;;;;;;;;;;;;;18.40;56.44;98822.31;2082064;28;19929;-51
2022/04/13 04:38:21;;;;;;;;;;;;;;;18.41;56.52;98823.97;2086584;28;19928;-55
2022/04/13 04:39:22;;;;;;;;;;;;;;;18.42;56.46;98823.78;2080945;28;19981;-51
2022/04/13 04:40:23;;;;;;;;;;;;;;;18.42;56.40;98828.34;2085103;28;19924;-53
2022/04/13 04:41:25;;;;;;;;;;;;;;;18.43;56.51;98827.31;2083871;28;22025;-52
2022/04/13 04:42:27;;;;;;;;;;;;;;;18.43;56.50;98821.94;2088768;28;20007;-47
2022/04/13 04:43:28;;;;;;;;;;;;;;;18.43;56.59;98820.06;2086294;28;19967;-52
2022/04/13 04:44:29;;;;;;;;;;;;;;;18.43;56.48;98825.44;2088531;28;19962;-48
2022/04/13 04:45:30;;;;;;;;;;;;;;;18.44;56.47;98821.75;2086694;28;20312;-51
2022/04/13 04:46:31;;;;;;;;;;;;;;;18.46;56.46;98826.91;2088051;28;19928;-47
2022/04/13 04:47:32;;;;;;;;;;;;;;;18.46;56.37;98825.03;2088195;28;19935;-53
2022/04/13 04:48:33;;;;;;;;;;;;;;;18.47;56.61;98823.19;2088377;28;19932;-46
2022/04/13 04:49:34;;;;;;;;;;;;;;;18.47;56.30;98828.56;2088412;28;20310;-53
2022/04/13 04:50:35;;;;;;;;;;;;;;;18.47;56.49;98826.72;2088785;28;20435;-49
2022/04/13 04:51:37;;;;;;;;;;;;;;;18.48;56.47;98828.38;2086546;28;19928;-52
2022/04/13 04:52:39;;;;;;;;;;;;;;;18.48;56.53;98823.00;2088884;28;19951;-46
2022/04/13 04:53:40;;;;;;;;;;;;;;;18.49;56.45;98829.19;2080800;28;20011;-51
2022/04/13 04:54:41;;;;;;;;;;;;;;;18.49;56.51;98823.81;2086215;28;20851;-51
2022/04/13 04:55:44;;;;;;;;;;;;;;;18.48;56.53;98819.50;2087988;28;19928;-51
2022/04/13 04:56:44;;;;;;;;;;;;;;;18.50;56.44;98830.88;2085600;28;19960;-54
2022/04/13 04:57:48;;;;;;;;;;;;;;;18.50;56.55;98834.38;2088463;28;19924;-49
2022/04/13 04:58:48;;;;;;;;;;;;;;;18.50;56.51;98834.38;2086356;28;19928;-49
2022/04/13 04:59:50;;;;;;;;;;;;;;;18.52;56.48;98826.94;2087272;28;19921;-54
2022/04/13 05:00:50;;;;;;;;;;;;;;;18.51;56.51;98824.47;2081346;28;20524;-53
2022/04/13 05:01:52;;;;;;;;;;;;;;;18.52;56.53;98840.34;2088743;28;19924;-51
2022/04/13 05:02:53;;;;;;;;;;;;;;;18.51;56.31;98830.66;2087939;28;20557;-55
2022/04/13 05:03:54;;;;;;;;;;;;;;;18.52;56.52;98826.94;2085725;28;19985;-48
2022/04/13 05:04:55;;;;;;;;;;;;;;;18.52;56.41;98832.31;2087120;28;19931;-54
2022/04/13 05:05:56;;;;;;;;;;;;;;;18.53;56.50;98830.47;2087052;28;19927;-50
2022/04/13 05:06:58;;;;;;;;;;;;;;;18.53;56.25;98839.34;2088787;28;20460;-49
2022/04/13 05:07:59;;;;;;;;;;;;;;;18.53;56.50;98838.53;2086975;28;19986;-52
2022/04/13 05:09:00;;;;;;;;;;;;;;;18.54;56.25;98840.19;2086298;28;19975;-52
2022/04/13 05:10:01;;;;;;;;;;;;;;;18.54;56.65;98838.31;2082907;28;19932;-47
2022/04/13 05:11:03;;;;;;;;;;;;;;;18.54;56.41;98835.63;2083823;28;19924;-50
2022/04/13 05:12:04;;;;;;;;;;;;;;;18.56;56.32;98834.63;2076057;28;19925;-47
2022/04/13 05:13:07;;;;;;;;;;;;;;;18.54;56.49;98841.00;2079844;28;19920;-51
2022/04/13 05:14:08;;;;;;;;;;;;;;;18.57;56.47;98841.63;2083908;28;19932;-52
2022/04/13 05:15:09;;;;;;;;;;;;;;;18.56;56.41;98838.13;2085748;28;19927;-52
2022/04/13 05:16:11;;;;;;;;;;;;;;;18.58;56.21;98844.09;2085248;28;19959;-54
2022/04/13 05:17:12;;;;;;;;;;;;;;;18.58;56.26;98840.59;2087195;28;20060;-50
2022/04/13 05:18:13;;;;;;;;;;;;;;;18.58;56.16;98840.59;2085608;28;19928;-48
2022/04/13 05:19:15;;;;;;;;;;;;;;;18.59;56.22;98842.28;2078986;28;19925;-51
2022/04/13 05:20:16;;;;;;;;;;;;;;;18.60;56.20;98846.59;2085422;28;20031;-49